createdAt,value
2018-08-07T00:00:41.902Z,97.90
2018-08-07T00:03:13.680Z,98.42
2018-08-07T00:05:43.375Z,97.29
2018-08-07T00:08:13.895Z,98.61
2018-08-07T00:10:44.106Z,99.28
2018-08-07T00:13:15.284Z,100.00
2018-08-07T00:15:44.918Z,100.00
2018-08-07T00:18:15.203Z,98.81
2018-08-07T00:20:45.181Z,98.79
2018-08-07T00:23:13.524Z,98.55
2018-08-07T00:25:41.683Z,100.00
2018-08-07T00:28:09.802Z,99.74
2018-08-07T00:30:38.029Z,100.00
2018-08-07T00:33:06.202Z,100.00
2018-08-07T00:35:34.313Z,99.93
2018-08-07T00:38:02.475Z,99.32
2018-08-07T00:40:30.630Z,100.00
2018-08-07T00:42:58.800Z,100.00
2018-08-07T00:45:26.879Z,100.00
2018-08-07T00:47:55.066Z,100.00
2018-08-07T00:50:23.199Z,100.00
2018-08-07T00:52:52.486Z,100.00
2018-08-07T00:55:21.018Z,100.00
2018-08-07T00:57:49.939Z,100.00
2018-08-07T01:00:18.145Z,100.00
2018-08-07T01:02:46.438Z,100.00
2018-08-07T01:05:15.917Z,100.00
2018-08-07T01:07:44.298Z,100.00
2018-08-07T01:10:14.234Z,100.00
2018-08-07T01:12:42.603Z,100.00
2018-08-07T01:15:14.344Z,100.00
2018-08-07T01:17:43.245Z,100.00
2018-08-07T01:20:13.470Z,100.00
2018-08-07T01:22:42.249Z,100.00
2018-08-07T01:25:15.366Z,100.00
2018-08-07T01:27:43.592Z,100.00
2018-08-07T01:30:14.195Z,100.00
2018-08-07T01:32:42.242Z,100.00
2018-08-07T01:35:10.252Z,100.00
2018-08-07T01:37:38.934Z,100.00
2018-08-07T01:40:08.637Z,100.00
2018-08-07T01:42:36.767Z,100.00
2018-08-07T01:45:05.846Z,100.00
2018-08-07T01:47:34.021Z,100.00
2018-08-07T01:50:02.113Z,100.00
2018-08-07T01:52:30.256Z,100.00
2018-08-07T01:54:58.329Z,100.00
2018-08-07T01:57:26.428Z,100.00
2018-08-07T01:59:54.591Z,100.00
2018-08-07T02:02:22.860Z,100.00
2018-08-07T02:04:50.978Z,100.00
2018-08-07T02:07:19.140Z,100.00
2018-08-07T02:09:47.403Z,100.00
2018-08-07T02:12:15.570Z,100.00
2018-08-07T02:14:44.400Z,100.00
2018-08-07T02:17:12.668Z,100.00
2018-08-07T02:19:40.796Z,100.00
2018-08-07T02:22:08.869Z,100.00
2018-08-07T02:24:37.052Z,100.00
2018-08-07T02:27:05.281Z,100.00
2018-08-07T02:29:33.444Z,100.00
2018-08-07T02:32:01.685Z,100.00
2018-08-07T02:34:29.830Z,100.00
2018-08-07T02:36:57.908Z,100.00
2018-08-07T02:39:25.987Z,100.00
2018-08-07T02:41:54.256Z,100.00
2018-08-07T02:44:22.386Z,100.00
2018-08-07T02:46:50.608Z,100.00
2018-08-07T02:49:18.731Z,100.00
2018-08-07T02:51:46.910Z,100.00
2018-08-07T02:54:15.107Z,100.00
2018-08-07T02:56:43.232Z,100.00
2018-08-07T02:59:11.480Z,100.00
2018-08-07T03:01:39.646Z,100.00
2018-08-07T03:04:07.959Z,100.00
2018-08-07T03:06:36.225Z,100.00
2018-08-07T03:09:07.195Z,100.00
2018-08-07T03:11:35.380Z,100.00
2018-08-07T03:14:03.799Z,100.00
2018-08-07T03:16:32.100Z,100.00
2018-08-07T03:19:00.485Z,100.00
2018-08-07T03:21:28.709Z,100.00
2018-08-07T03:23:57.067Z,100.00
2018-08-07T03:26:25.308Z,100.00
2018-08-07T03:28:53.485Z,100.00
2018-08-07T03:31:21.833Z,100.00
2018-08-07T03:33:50.050Z,100.00
2018-08-07T03:36:18.635Z,100.00
2018-08-07T03:38:46.749Z,100.00
2018-08-07T03:41:14.959Z,100.00
2018-08-07T03:43:43.204Z,100.00
2018-08-07T03:46:11.805Z,99.71
2018-08-07T03:48:40.202Z,94.53
2018-08-07T03:51:08.382Z,90.18
2018-08-07T03:53:37.205Z,88.02
2018-08-07T03:56:06.453Z,84.55
2018-08-07T03:58:35.262Z,82.03
2018-08-07T04:01:04.284Z,79.94
2018-08-07T04:03:33.457Z,76.72
2018-08-07T04:06:03.551Z,76.46
2018-08-07T04:08:34.065Z,75.55
2018-08-07T04:11:02.475Z,74.34
2018-08-07T04:13:32.034Z,73.67
2018-08-07T04:16:04.296Z,73.52
2018-08-07T04:18:33.081Z,71.18
2018-08-07T04:21:01.152Z,72.32
2018-08-07T04:23:29.429Z,70.09
2018-08-07T04:25:58.126Z,69.23
2018-08-07T04:28:26.479Z,69.38
2018-08-07T04:30:54.607Z,70.50
2018-08-07T04:33:22.988Z,69.96
2018-08-07T04:35:51.213Z,73.50
2018-08-07T04:38:19.270Z,70.97
2018-08-07T04:40:47.388Z,71.25
2018-08-07T04:43:15.864Z,71.80
2018-08-07T04:45:44.253Z,71.78
2018-08-07T04:48:12.754Z,69.32
2018-08-07T04:50:41.011Z,68.79
2018-08-07T04:53:10.459Z,69.35
2018-08-07T04:55:39.280Z,69.15
2018-08-07T04:58:07.621Z,71.64
2018-08-07T05:00:35.811Z,72.55
2018-08-07T05:03:04.304Z,71.67
2018-08-07T05:05:32.613Z,73.72
2018-08-07T05:08:00.900Z,74.62
2018-08-07T05:10:29.670Z,71.64
2018-08-07T05:12:58.134Z,70.95
2018-08-07T05:15:26.503Z,71.60
2018-08-07T05:17:54.763Z,71.73
2018-08-07T05:20:23.094Z,71.18
2018-08-07T05:22:51.469Z,69.97
2018-08-07T05:25:19.817Z,68.89
2018-08-07T05:27:48.087Z,69.49
2018-08-07T05:30:16.980Z,70.59
2018-08-07T05:32:45.354Z,72.55
2018-08-07T05:35:14.787Z,70.98
2018-08-07T05:37:43.490Z,69.38
2018-08-07T05:40:11.964Z,72.22
2018-08-07T05:42:40.869Z,71.71
2018-08-07T05:45:10.940Z,71.76
2018-08-07T05:47:39.182Z,71.36
2018-08-07T05:50:10.230Z,70.68
2018-08-07T06:29:36.165Z,73.60
2018-08-07T06:32:04.357Z,72.55
2018-08-07T06:34:32.641Z,71.45
2018-08-07T06:37:00.876Z,71.22
2018-08-07T06:39:29.345Z,72.84
2018-08-07T06:41:57.698Z,70.02
2018-08-07T06:44:26.129Z,68.94
2018-08-07T06:46:54.676Z,69.43
2018-08-07T06:49:22.874Z,67.28
2018-08-07T06:51:51.345Z,68.44
2018-08-07T06:54:21.714Z,66.89
2018-08-07T06:56:49.904Z,68.71
2018-08-07T06:59:18.191Z,67.84
2018-08-07T07:01:48.452Z,69.62
2018-08-07T07:04:17.310Z,68.40
2018-08-07T07:06:45.672Z,62.05
2018-08-07T07:09:13.843Z,66.73
2018-08-07T07:11:42.699Z,63.22
2018-08-07T07:14:14.919Z,61.89
2018-08-07T07:16:43.523Z,63.64
2018-08-07T07:19:11.688Z,61.31
2018-08-07T07:21:39.986Z,62.97
2018-08-07T07:24:18.468Z,62.25
2018-08-07T07:26:46.721Z,62.80
2018-08-07T07:29:15.108Z,59.59
2018-08-07T07:31:43.938Z,62.85
2018-08-07T07:34:13.857Z,63.14
2018-08-07T07:36:43.019Z,62.63
2018-08-07T07:39:11.563Z,61.39
2018-08-07T07:41:40.526Z,62.17
2018-08-07T07:44:11.114Z,60.43
2018-08-07T07:46:41.967Z,59.23
2018-08-07T07:49:11.025Z,59.25
2018-08-07T07:51:39.594Z,58.96
2018-08-07T07:54:09.290Z,56.45
2018-08-07T07:56:38.172Z,56.75
2018-08-07T07:59:07.101Z,58.90
2018-08-07T08:01:35.323Z,54.67
2018-08-07T08:04:03.734Z,59.24
2018-08-07T08:06:31.988Z,55.66
2018-08-07T08:09:00.388Z,55.97
2018-08-07T08:11:28.593Z,55.55
2018-08-07T08:13:57.803Z,57.54
2018-08-07T08:16:25.974Z,52.54
2018-08-07T08:18:54.183Z,57.50
2018-08-07T08:21:25.031Z,54.79
2018-08-07T08:23:53.634Z,55.10
2018-08-07T08:26:21.992Z,54.19
2018-08-07T08:28:50.150Z,54.24
2018-08-07T08:31:18.551Z,50.65
2018-08-07T08:33:47.023Z,56.10
2018-08-07T08:36:15.124Z,53.66
2018-08-07T08:38:43.307Z,53.05
2018-08-07T08:41:11.422Z,55.16
2018-08-07T08:43:39.684Z,53.28
2018-08-07T08:46:08.018Z,52.49
2018-08-07T08:48:36.345Z,51.42
2018-08-07T08:51:04.618Z,48.50
2018-08-07T08:53:33.076Z,50.82
2018-08-07T08:56:01.539Z,51.78
2018-08-07T08:58:29.738Z,51.67
2018-08-07T09:00:58.242Z,53.58
2018-08-07T09:03:26.496Z,48.08
2018-08-07T09:05:54.856Z,45.98
2018-08-07T09:08:23.014Z,42.05
2018-08-07T09:10:52.122Z,43.27
2018-08-07T09:13:24.109Z,48.87
2018-08-07T09:15:52.757Z,45.47
2018-08-07T09:18:21.160Z,46.88
2018-08-07T09:20:49.728Z,45.06
2018-08-07T09:23:18.255Z,45.30
2018-08-07T09:25:46.558Z,46.23
2018-08-07T09:28:14.744Z,45.09
2018-08-07T09:30:43.182Z,45.73
2018-08-07T09:33:11.449Z,47.51
2018-08-07T10:04:34.335Z,42.85
2018-08-07T10:07:02.622Z,41.01
2018-08-07T10:09:30.870Z,40.83
2018-08-07T10:12:00.682Z,44.15
2018-08-07T10:14:31.592Z,42.57
2018-08-07T10:17:01.115Z,41.97
2018-08-07T10:19:29.449Z,41.20
2018-08-07T10:21:57.672Z,43.88
2018-08-07T10:24:26.022Z,45.11
2018-08-07T10:26:54.399Z,42.30
2018-08-07T10:29:22.723Z,41.16
2018-08-07T10:31:51.238Z,40.87
2018-08-07T10:34:21.756Z,42.70
2018-08-07T10:36:50.589Z,40.11
2018-08-07T10:39:18.986Z,44.81
2018-08-07T10:41:47.390Z,45.27
2018-08-07T10:44:17.898Z,46.64
2018-08-07T10:46:48.534Z,43.72
2018-08-07T10:49:17.507Z,50.02
2018-08-07T10:51:47.791Z,41.29
2018-08-07T10:54:17.328Z,42.33
2018-08-07T10:56:47.760Z,46.71
2018-08-07T10:59:17.203Z,47.74
2018-08-07T11:01:46.271Z,50.13
2018-08-07T11:04:17.238Z,44.21
2018-08-07T11:06:45.947Z,42.55
2018-08-07T11:09:14.191Z,35.73
2018-08-07T11:11:42.819Z,35.33
2018-08-07T11:14:11.186Z,37.97
2018-08-07T11:16:39.416Z,34.78
2018-08-07T11:19:07.614Z,34.92
2018-08-07T11:21:35.830Z,36.70
2018-08-07T11:24:05.641Z,39.27
2018-08-07T11:26:34.166Z,36.06
2018-08-07T11:29:02.440Z,35.95
2018-08-07T11:31:30.867Z,32.54
2018-08-07T11:34:02.887Z,33.75
2018-08-07T11:36:31.235Z,37.22
2018-08-07T11:38:59.896Z,33.22
2018-08-07T11:41:28.620Z,36.34
2018-08-07T11:44:00.610Z,37.50
2018-08-07T11:46:30.489Z,33.24
2018-08-07T11:48:59.398Z,37.17
2018-08-07T11:51:28.032Z,33.04
2018-08-07T11:53:58.570Z,32.94
2018-08-07T11:56:27.633Z,32.14
2018-08-07T11:58:59.180Z,34.38
2018-08-07T12:01:27.703Z,32.27
2018-08-07T12:03:59.302Z,33.70
2018-08-07T12:06:27.728Z,34.43
2018-08-07T12:08:56.021Z,33.96
2018-08-07T12:11:24.313Z,34.49
2018-08-07T12:13:52.709Z,33.87
2018-08-07T12:16:20.998Z,33.70
2018-08-07T12:18:49.630Z,32.57
2018-08-07T12:21:17.832Z,34.02
2018-08-07T12:23:46.167Z,32.77
2018-08-07T12:26:14.449Z,34.55
2018-08-07T12:28:42.801Z,37.14
2018-08-07T12:31:11.077Z,35.35
2018-08-07T12:33:39.193Z,32.81
2018-08-07T12:36:08.082Z,31.85
2018-08-07T12:38:36.539Z,33.03
2018-08-07T12:41:05.063Z,33.55
2018-08-07T12:43:33.376Z,32.64
2018-08-07T12:46:01.497Z,32.24
2018-08-07T12:48:30.237Z,32.70
2018-08-07T12:50:58.513Z,33.93
2018-08-07T12:53:27.280Z,33.62
2018-08-07T12:55:55.596Z,34.72
2018-08-07T12:58:24.047Z,34.18
2018-08-07T13:00:52.345Z,35.58
2018-08-07T13:03:21.331Z,36.83
2018-08-07T13:05:50.206Z,38.46
2018-08-07T13:08:18.544Z,41.86
2018-08-07T13:10:47.540Z,39.83
2018-08-07T13:13:15.868Z,34.89
2018-08-07T13:15:44.100Z,34.71
2018-08-07T13:18:12.447Z,32.55
2018-08-07T13:20:40.735Z,33.34
2018-08-07T13:23:08.908Z,34.40
2018-08-07T13:25:37.102Z,34.01
2018-08-07T13:28:05.545Z,37.10
2018-08-07T13:30:33.965Z,35.69
2018-08-07T13:33:02.592Z,36.41
2018-08-07T13:35:30.821Z,36.83
2018-08-07T13:37:59.057Z,35.96
2018-08-07T13:40:27.261Z,35.01
2018-08-07T13:42:55.645Z,37.98
2018-08-07T13:45:25.287Z,42.13
2018-08-07T13:47:53.676Z,43.44
2018-08-07T13:50:23.818Z,45.59
2018-08-07T13:52:52.695Z,40.92
2018-08-07T13:55:22.101Z,46.15
2018-08-07T13:57:50.302Z,43.39
2018-08-07T14:00:22.342Z,44.36
2018-08-07T14:02:51.272Z,44.69
2018-08-07T14:05:20.807Z,45.88
2018-08-07T14:07:51.874Z,48.63
2018-08-07T14:10:25.408Z,49.20
2018-08-07T14:12:59.586Z,51.35
2018-08-07T14:15:31.161Z,50.76
2018-08-07T14:18:00.622Z,51.08
2018-08-07T14:20:29.505Z,51.84
2018-08-07T14:23:05.684Z,52.98
2018-08-07T14:25:34.602Z,55.27
2018-08-07T14:28:04.017Z,54.22
2018-08-07T14:30:32.712Z,53.16
2018-08-07T14:33:05.347Z,51.91
2018-08-07T14:35:33.674Z,57.85
2018-08-07T14:38:07.206Z,53.66
2018-08-07T14:40:36.352Z,57.90
2018-08-07T14:43:05.301Z,56.47
2018-08-07T14:45:33.767Z,59.94
2018-08-07T14:48:02.695Z,57.16
2018-08-07T14:50:31.391Z,58.69
2018-08-07T14:53:00.162Z,57.90
2018-08-07T14:55:28.959Z,61.68
2018-08-07T14:57:57.401Z,60.15
2018-08-07T15:00:28.582Z,60.39
2018-08-07T15:02:59.480Z,60.89
2018-08-07T15:05:31.463Z,58.17
2018-08-07T15:08:04.942Z,60.91
2018-08-07T15:10:33.817Z,58.66
2018-08-07T15:13:04.882Z,58.95
2018-08-07T15:15:35.298Z,59.23
2018-08-07T15:18:11.265Z,59.88
2018-08-07T15:20:40.291Z,59.70
2018-08-07T15:23:09.171Z,60.03
2018-08-07T15:25:39.957Z,59.27
2018-08-07T15:28:09.706Z,61.99
2018-08-07T15:30:41.731Z,62.33
2018-08-07T15:33:11.712Z,63.87
2018-08-07T15:35:40.401Z,61.95
2018-08-07T15:38:08.849Z,63.46
2018-08-07T15:40:37.554Z,63.65
2018-08-07T15:43:06.580Z,64.52
2018-08-07T15:45:36.985Z,64.61
2018-08-07T15:48:08.789Z,64.82
2018-08-07T15:50:39.376Z,65.41
2018-08-07T15:53:07.868Z,67.27
2018-08-07T15:55:36.350Z,66.21
2018-08-07T15:58:05.701Z,65.72
2018-08-07T16:00:34.280Z,65.12
2018-08-07T16:03:04.499Z,66.36
2018-08-07T16:05:33.166Z,67.03
2018-08-07T16:08:01.785Z,66.84
2018-08-07T16:10:30.120Z,65.64
2018-08-07T16:12:58.718Z,66.70
2018-08-07T16:15:27.082Z,66.09
2018-08-07T16:17:55.495Z,67.31
2018-08-07T16:20:24.553Z,65.18
2018-08-07T16:22:53.010Z,66.79
2018-08-07T16:25:22.127Z,65.04
2018-08-07T16:27:50.962Z,66.28
2018-08-07T16:30:21.924Z,67.50
2018-08-07T16:32:50.547Z,66.42
2018-08-07T16:35:19.076Z,66.87
2018-08-07T16:37:47.842Z,65.98
2018-08-07T16:40:24.153Z,67.27
2018-08-07T16:42:53.551Z,67.98
2018-08-07T16:45:22.936Z,68.04
2018-08-07T16:47:51.505Z,69.36
2018-08-07T16:50:23.684Z,67.47
2018-08-07T16:52:53.201Z,69.20
2018-08-07T16:55:22.792Z,69.53
2018-08-07T16:57:51.245Z,68.22
2018-08-07T17:00:19.773Z,68.73
2018-08-07T17:02:48.554Z,69.07
2018-08-07T17:05:17.695Z,69.93
2018-08-07T17:07:46.958Z,70.97
2018-08-07T17:10:20.274Z,70.99
2018-08-07T17:12:49.060Z,71.04
2018-08-07T17:15:17.519Z,72.55
2018-08-07T17:17:46.122Z,73.04
2018-08-07T17:20:16.154Z,73.39
2018-08-07T17:22:44.801Z,73.38
2018-08-07T17:25:15.609Z,74.25
2018-08-07T17:27:45.211Z,73.73
2018-08-07T17:30:17.070Z,74.81
2018-08-07T17:32:45.996Z,75.68
2018-08-07T17:35:19.706Z,76.24
2018-08-07T17:37:50.876Z,76.16
2018-08-07T17:40:22.263Z,77.02
2018-08-07T17:42:55.381Z,76.70
2018-08-07T17:45:23.948Z,77.65
2018-08-07T17:47:52.364Z,78.44
2018-08-07T17:50:22.787Z,78.05
2018-08-07T17:52:51.606Z,79.48
2018-08-07T17:55:24.807Z,78.67
2018-08-07T17:57:55.179Z,80.81
2018-08-07T18:00:28.338Z,79.67
2018-08-07T18:02:59.076Z,80.83
2018-08-07T18:05:34.683Z,81.08
2018-08-07T18:08:03.931Z,80.68
2018-08-07T18:10:32.308Z,80.02
2018-08-07T18:13:00.635Z,80.55
2018-08-07T18:15:29.350Z,82.81
2018-08-07T18:17:58.240Z,80.94
2018-08-07T18:20:27.849Z,81.38
2018-08-07T18:22:56.364Z,82.59
2018-08-07T18:25:29.150Z,82.08
2018-08-07T18:27:58.053Z,81.94
2018-08-07T18:30:26.656Z,81.75
2018-08-07T18:32:55.287Z,81.01
2018-08-07T18:35:25.783Z,81.72
2018-08-07T18:37:54.342Z,81.74
2018-08-07T18:40:24.850Z,81.80
2018-08-07T18:42:53.758Z,82.13
2018-08-07T18:45:22.230Z,82.15
2018-08-07T18:47:50.555Z,82.77
2018-08-07T18:50:20.545Z,83.84
2018-08-07T18:52:49.096Z,83.33
2018-08-07T18:55:17.819Z,84.86
2018-08-07T18:57:47.470Z,84.43
2018-08-07T19:00:18.260Z,84.26
2018-08-07T19:02:47.070Z,84.71
2018-08-07T19:05:18.284Z,84.08
2018-08-07T19:07:46.982Z,86.05
2018-08-07T19:10:15.431Z,84.63
2018-08-07T19:12:44.775Z,84.83
2018-08-07T19:15:14.271Z,84.67
2018-08-07T19:17:43.990Z,84.72
2018-08-07T19:20:14.296Z,85.95
2018-08-07T19:22:44.625Z,86.49
2018-08-07T19:25:16.034Z,85.36
2018-08-07T19:27:45.306Z,86.08
2018-08-07T19:30:15.739Z,87.08
2018-08-07T19:32:44.483Z,87.54
2018-08-07T19:35:13.705Z,87.72
2018-08-07T19:37:42.487Z,86.70
2018-08-07T19:40:13.573Z,87.88
2018-08-07T19:42:42.119Z,87.71
2018-08-07T19:45:11.563Z,88.13
2018-08-07T19:47:41.617Z,88.25
2018-08-07T19:50:12.935Z,87.39
2018-08-07T19:52:41.717Z,88.69
2018-08-07T19:55:13.404Z,88.23
2018-08-07T19:57:41.751Z,88.67
2018-08-07T20:00:22.005Z,88.38
2018-08-07T20:02:50.820Z,88.78
2018-08-07T20:05:19.332Z,89.35
2018-08-07T20:07:47.931Z,88.94
2018-08-07T20:10:17.471Z,89.57
2018-08-07T20:12:46.496Z,89.41
2018-08-07T20:15:19.373Z,90.10
2018-08-07T20:17:48.058Z,89.96
2018-08-07T20:20:16.188Z,90.07
2018-08-07T20:22:44.466Z,90.31
2018-08-07T20:25:12.841Z,90.51
2018-08-07T20:27:41.162Z,90.28
2018-08-07T20:30:14.314Z,90.08
2018-08-07T20:32:43.627Z,90.05
2018-08-07T20:35:11.887Z,90.88
2018-08-07T20:37:40.101Z,91.07
2018-08-07T20:40:11.903Z,90.93
2018-08-07T20:42:40.057Z,90.76
2018-08-07T20:45:09.536Z,91.84
2018-08-07T20:47:38.722Z,92.21
2018-08-07T20:50:12.351Z,92.21
2018-08-07T20:52:41.593Z,93.34
2018-08-07T20:55:09.944Z,92.69
2018-08-07T20:57:38.163Z,93.58
2018-08-07T21:00:08.119Z,93.66
2018-08-07T21:02:36.612Z,93.52
2018-08-07T21:05:05.206Z,94.39
2018-08-07T21:07:34.722Z,93.34
2018-08-07T21:10:03.851Z,94.02
2018-08-07T21:12:32.150Z,93.18
2018-08-07T21:15:02.930Z,93.89
2018-08-07T21:17:31.952Z,92.96
2018-08-07T21:20:00.464Z,93.45
2018-08-07T21:22:36.363Z,93.72
2018-08-07T21:25:11.277Z,93.15
2018-08-07T21:27:39.721Z,93.11
2018-08-07T21:30:14.418Z,92.72
2018-08-07T21:32:44.414Z,94.04
2018-08-07T21:35:13.746Z,93.99
2018-08-07T21:37:43.360Z,94.33
2018-08-07T21:40:18.609Z,93.82
2018-08-07T21:42:49.433Z,93.35
2018-08-07T21:45:18.155Z,94.14
2018-08-07T21:47:51.952Z,93.71
2018-08-07T21:50:25.189Z,93.94
2018-08-07T21:53:01.459Z,94.46
2018-08-07T21:55:30.584Z,95.31
2018-08-07T21:58:04.297Z,95.00
2018-08-07T22:00:51.539Z,94.81
2018-08-07T22:03:20.337Z,95.49
2018-08-07T22:05:51.131Z,94.89
2018-08-07T22:08:19.590Z,96.07
2018-08-07T22:10:47.888Z,96.29
2018-08-07T22:13:16.929Z,95.57
2018-08-07T22:15:53.218Z,96.41
2018-08-07T22:18:28.790Z,96.15
2018-08-07T22:21:02.373Z,96.44
2018-08-07T22:23:33.314Z,95.08
2018-08-07T22:26:10.447Z,96.89
2018-08-07T22:28:47.638Z,96.65
2018-08-07T22:31:18.932Z,95.12
2018-08-07T22:33:47.879Z,97.38
2018-08-07T22:36:15.924Z,96.71
2018-08-07T22:38:46.201Z,96.22
2018-08-07T22:41:16.164Z,97.03
2018-08-07T22:43:48.415Z,97.19
2018-08-07T22:46:18.354Z,96.62
2018-08-07T22:48:46.605Z,97.27
2018-08-07T22:51:14.927Z,98.08
2018-08-07T22:53:43.066Z,98.74
2018-08-07T22:56:11.196Z,97.84
2018-08-07T22:58:39.251Z,97.92
2018-08-07T23:01:07.932Z,97.39
2018-08-07T23:03:36.214Z,97.72
2018-08-07T23:06:04.448Z,99.42
2018-08-07T23:08:32.583Z,98.79
2018-08-07T23:11:00.724Z,99.07
2018-08-07T23:13:28.885Z,99.56
2018-08-07T23:15:57.135Z,99.22
2018-08-07T23:18:25.306Z,99.49
2018-08-07T23:20:53.404Z,100.00
2018-08-07T23:23:21.519Z,99.50
2018-08-07T23:25:49.705Z,99.61
2018-08-07T23:28:17.778Z,100.00
2018-08-07T23:30:45.844Z,99.69
2018-08-07T23:33:14.112Z,99.66
2018-08-07T23:35:42.311Z,99.83
2018-08-07T23:38:10.464Z,100.00
2018-08-07T23:40:38.553Z,100.00
2018-08-07T23:43:06.643Z,100.00
2018-08-07T23:45:35.075Z,100.00
2018-08-07T23:48:03.528Z,99.95
2018-08-07T23:50:32.315Z,100.00
2018-08-07T23:53:00.607Z,100.00
2018-08-07T23:55:28.823Z,100.00
2018-08-07T23:57:56.954Z,100.00
